Austin, Texas
Traffic Map
Current Weather Conditions
Austin, Texas
Clear
Clear
32°
Feels Like: 32°
Wind Chill: 32° Ceiling: Unl
Heat Index: 32° Visibility: 7mi
Dew Point: 30° Wind: 0mph
Humidity: 92% Direction: ° ()
Pressure: 30.29in Gusts: 0mph
Raw Report DataKATT 071251Z AUTO 00000KT 7SM CLR 00/M01 A3029 RMK AO2 SLP261 T00001011
Traffic Incident Summary
Active as of:
Severity:
Category:
InformationThere was an issue retrieving the traffic information for this location. Please try a different location or try again shortly.
Advertisements
Track Severe Weather on mobile